Yellowstone Lake, WY

10:12 PM MST on January 19, 2017 (GMT -0700)
Yellowstone | | Change Station
Active Advisory: Special Statement

Elev 6650 ft 44.69 °N, 111.12 °W | Updated 27 minutes ago

Overcast
Overcast
27 °F
Feels Like 16 °F
N
13
Wind Variable Wind from SW
Gusts 17 mph

Today
High -- | Low -- °F
--% Chance of Precip.
Yesterday
High -- | Low -- °F
Precip. -- in
Pressure 29.60 in
Visibility 5.0 miles
Clouds Mostly Cloudy 1100 ft
Overcast 1400 ft
Windchill 16 °F
Dew Point 25 °F
Humidity 93%
Rainfall 0.02 in
Snow Depth Not available.
7:52 AM 5:13 PM
Waning Gibbous, 47% visible
METAR KWYS 200445Z AUTO 22011G15KT 5SM -SN BKN011 OVC014 M03/M04 A2960 RMK AO2
Pressure 29.60 in
Visibility 5.0 miles
Clouds Mostly Cloudy 1100 ft
Overcast 1400 ft
Windchill 16 °F
Dew Point 25 °F
Humidity 93%
Rainfall 0.02 in
Snow Depth Not available.
7:52 AM 5:13 PM
Waning Gibbous, 47% visible
METAR KWYS 200445Z AUTO 22011G15KT 5SM -SN BKN011 OVC014 M03/M04 A2960 RMK AO2

Get Your Daily Forecast Email!

Thanks for signing up!

Be on the lookout for a verification email in your inbox.

You'll start receiving the daily forecast at 8 AM.

×

10-Day Weather Forecast

Almanac

Astronomy

Jan. 19, 2017 Rise Set
Actual Time
Civil Twilight
Nautical Twilight
Astronomical Twilight
Moon
Length of Visible Light
Length of Day
Tomorrow will be .
, % of the Moon is Illuminated

Today's Extremes

State Highs State Lows

Community

WunderPhotos

Upload Photos

1,962,540 photos uploaded!

WunderBlog® & News

Nearby

Air Quality

  Air Quality AQ Index Pollutant
Not available.

Snow Depth

Station Depth Elevation

Earthquake Activity

City Distance Mag. Time & Date
Minimum magnitude displayed is 2.5.

Coastal Water Temperatures

Place Temperature

Stations

Nearby Weather Stations

Station Location Temp. Windchill Dew Point Humidity Wind Precip. Elev Updated Type
                   

Watches & Warnings

Special Statement
Issued: 12:43 PM MST Jan. 19, 2017 – National Weather Service

Light to occasionally moderate snowfall will begin across the
mountains of western Wyoming this morning... tapering off later
tonight. Generally expect from 2 to 6 inches of accumulating
snowfall by Friday morning in the mountains... with a half to 2
inches in the valleys.



1243 PM MST Thu Jan 19 2017

Light to occasionally moderate snowfall will begin across the
mountains of western Wyoming this morning... tapering off later
tonight. Generally expect from 2 to 6 inches of accumulating
snowfall by Friday morning in the mountains... with a half to 2
inches in the valleys.